Terminal Aerodrome Forecast
Issued by NWS

Home | Current Version | Previous Version | Text Only | Print | Product List | Glossary On
Versions: 1 2 3 4 5 6 7 8 9 10 11 12 13 14 15 16 17 18
302
FTUS46 KSGX 192335
TAFCRQ
TAF
KCRQ 192335Z 2000/2024 25009KT P6SM BKN025
     FM200800 VRB06KT P6SM VCSH BKN015
     FM201400 17015G25KT 5SM -RA BKN010
     FM201800 19012G30KT 3SM RA SCT005 OVC010=

USA.gov is the U.S. government's official web portal to all federal, state and local government web resources and services.